Time;durP1;ratioP1;P1;durP2;ratioP2;P2;SDS_P1;SDS_P2;PMS_P1;PMS_P2;Temp;Humidity;BMP_temperature;BMP_pressure;BME280_temperature;BME280_humidity;BME280_pressure;Samples;Min_cycle;Max_cycle;Signal;HPM_P1;HPM_P2
2022/04/08 05:00:09;;;;;;;4.70;1.80;;;9.40;97.20;;;;;;1707219;29;20186;-66
2022/04/08 05:01:00;;;;;;;4.80;2.38;;;9.40;97.20;;;;;;1707264;28;20237;-66
2022/04/08 05:01:53;;;;;;;5.97;2.57;;;9.50;97.20;;;;;;1707214;28;20273;-66
2022/04/08 05:02:44;;;;;;;5.35;2.33;;;9.50;97.20;;;;;;1707301;28;20516;-66
2022/04/08 05:03:36;;;;;;;6.60;2.50;;;9.50;97.20;;;;;;1703963;28;20237;-66
2022/04/08 05:04:27;;;;;;;5.35;2.60;;;9.50;97.20;;;;;;1700685;29;20211;-66
2022/04/08 05:05:18;;;;;;;6.53;2.47;;;9.50;97.20;;;;;;1700683;29;20262;-66
2022/04/08 05:06:09;;;;;;;6.55;2.40;;;9.50;97.20;;;;;;1703917;29;20194;-66
2022/04/08 05:07:01;;;;;;;7.10;2.57;;;9.50;97.20;;;;;;1707193;28;20202;-66
2022/04/08 05:07:52;;;;;;;6.72;2.45;;;9.50;97.20;;;;;;1707040;28;20256;-66
2022/04/08 05:08:43;;;;;;;9.80;2.70;;;9.50;97.20;;;;;;1706871;28;20198;-66
2022/04/08 05:09:34;;;;;;;5.25;2.20;;;9.50;97.20;;;;;;1702944;29;20202;-66
2022/04/08 05:10:26;;;;;;;7.90;2.47;;;9.50;97.20;;;;;;1706004;29;20198;-66
2022/04/08 05:11:17;;;;;;;5.15;1.90;;;9.50;97.20;;;;;;1707209;28;20369;-66
2022/04/08 05:12:10;;;;;;;6.15;2.55;;;9.50;97.20;;;;;;1707245;28;20567;-66
2022/04/08 05:13:01;;;;;;;4.68;2.60;;;9.50;97.20;;;;;;1707075;28;20238;-66
2022/04/08 05:13:52;;;;;;;7.50;2.63;;;9.50;97.20;;;;;;1707238;28;20203;-66
2022/04/08 05:14:44;;;;;;;3.83;2.30;;;9.50;97.20;;;;;;1707187;28;20490;-66
2022/04/08 05:15:38;;;;;;;4.10;2.33;;;9.50;97.20;;;;;;1705255;28;20210;-66
2022/04/08 05:16:30;;;;;;;4.82;2.35;;;9.50;97.20;;;;;;1700624;29;20291;-66
2022/04/08 05:17:22;;;;;;;5.20;2.20;;;9.50;97.20;;;;;;1700580;29;20242;-66
2022/04/08 05:18:12;;;;;;;3.60;1.92;;;9.50;97.20;;;;;;1700370;29;20667;-66
2022/04/08 05:19:04;;;;;;;4.10;2.20;;;9.50;97.20;;;;;;1700559;29;20572;-66
2022/04/08 05:19:55;;;;;;;3.90;1.80;;;9.50;97.20;;;;;;1700600;29;20210;-66
2022/04/08 05:20:48;;;;;;;5.43;1.73;;;9.50;97.20;;;;;;1700661;29;20206;-66
2022/04/08 05:21:40;;;;;;;4.50;2.45;;;9.50;97.20;;;;;;1705314;29;20337;-66
2022/04/08 05:22:30;;;;;;;4.35;2.10;;;9.50;97.20;;;;;;1703171;29;20697;-66
2022/04/08 05:23:25;;;;;;;5.20;1.80;;;9.50;97.20;;;;;;1703568;29;20609;-67
2022/04/08 05:24:16;;;;;;;6.65;1.80;;;9.50;97.20;;;;;;1701812;28;20648;-67
2022/04/08 05:25:10;;;;;;;5.17;2.43;;;9.50;97.20;;;;;;1703659;29;20674;-67
2022/04/08 05:26:01;;;;;;;4.75;1.95;;;9.50;97.20;;;;;;1705115;29;20210;-67
2022/04/08 05:26:53;;;;;;;3.05;1.50;;;9.50;97.20;;;;;;1705170;29;20191;-67
2022/04/08 05:27:44;;;;;;;3.85;1.60;;;9.50;97.20;;;;;;1705245;28;20207;-67
2022/04/08 05:28:35;;;;;;;4.87;1.63;;;9.50;97.20;;;;;;1704766;28;20199;-67
2022/04/08 05:29:26;;;;;;;5.22;2.17;;;9.50;97.20;;;;;;1705876;28;20231;-67
2022/04/08 05:30:18;;;;;;;3.83;1.77;;;9.50;97.20;;;;;;1706733;29;20214;-67
2022/04/08 05:31:10;;;;;;;3.85;2.25;;;9.50;97.20;;;;;;1706505;28;20547;-67
2022/04/08 05:32:02;;;;;;;2.10;1.65;;;9.50;97.20;;;;;;1707049;28;20199;-67
2022/04/08 05:32:54;;;;;;;2.55;1.33;;;9.60;97.20;;;;;;1707476;28;20699;-67
2022/04/08 05:33:46;;;;;;;5.35;2.03;;;9.60;97.20;;;;;;1706510;29;20325;-67
2022/04/08 05:34:36;;;;;;;5.32;1.50;;;9.60;97.20;;;;;;1706506;28;20229;-68
2022/04/08 05:35:28;;;;;;;5.40;1.73;;;9.60;97.20;;;;;;1706196;28;20194;-68
2022/04/08 05:36:19;;;;;;;5.28;1.73;;;9.60;97.20;;;;;;1705906;29;20202;-67
2022/04/08 05:37:12;;;;;;;4.17;1.43;;;9.60;97.20;;;;;;1706583;28;20191;-67
2022/04/08 05:38:03;;;;;;;3.58;1.35;;;9.60;97.20;;;;;;1706037;29;20238;-67
2022/04/08 05:38:55;;;;;;;3.03;1.40;;;9.60;97.20;;;;;;1706543;29;20194;-68
2022/04/08 05:39:45;;;;;;;2.95;1.60;;;9.60;97.20;;;;;;1706871;28;20446;-67
2022/04/08 05:40:37;;;;;;;4.87;1.57;;;9.70;97.20;;;;;;1706954;28;20202;-67
2022/04/08 05:41:28;;;;;;;3.85;1.50;;;9.70;97.20;;;;;;1706468;29;20240;-66
2022/04/08 05:42:19;;;;;;;3.07;1.20;;;9.70;97.20;;;;;;1706667;28;20198;-66
2022/04/08 05:43:10;;;;;;;2.72;1.38;;;9.70;97.20;;;;;;1703454;29;20222;-66
2022/04/08 05:44:02;;;;;;;4.80;1.23;;;9.70;97.20;;;;;;1706381;28;20209;-66
2022/04/08 05:44:52;;;;;;;3.80;1.63;;;9.70;97.20;;;;;;1703258;28;20222;-66
2022/04/08 05:45:44;;;;;;;3.50;1.30;;;9.70;97.20;;;;;;1705302;29;20285;-66
2022/04/08 05:46:39;;;;;;;5.68;1.50;;;9.70;97.20;;;;;;1706780;28;20202;-66
2022/04/08 05:47:34;;;;;;;5.10;1.50;;;9.70;97.20;;;;;;1706110;29;20222;-67
2022/04/08 05:48:25;;;;;;;3.00;1.58;;;9.80;97.20;;;;;;1705369;29;20228;-66
2022/04/08 05:49:17;;;;;;;3.72;2.00;;;9.80;97.20;;;;;;1705780;28;20322;-66
2022/04/08 05:50:09;;;;;;;5.85;1.60;;;9.70;97.20;;;;;;1705519;28;20938;-66
2022/04/08 05:51:00;;;;;;;4.05;1.70;;;9.80;97.20;;;;;;1706440;28;20793;-66
2022/04/08 05:51:51;;;;;;;5.07;2.45;;;9.80;97.20;;;;;;1706666;28;20562;-67
2022/04/08 05:52:44;;;;;;;6.57;2.80;;;9.80;97.20;;;;;;1707009;28;20285;-67
2022/04/08 05:53:35;;;;;;;3.38;1.42;;;9.80;97.20;;;;;;1706506;29;20230;-66
2022/04/08 05:54:26;;;;;;;4.32;1.42;;;9.80;97.20;;;;;;1706289;28;20237;-66
2022/04/08 05:55:18;;;;;;;4.63;1.80;;;9.80;97.20;;;;;;1706295;29;20314;-66
2022/04/08 05:56:09;;;;;;;4.07;1.70;;;9.80;97.20;;;;;;1706416;29;20207;-66
2022/04/08 05:57:01;;;;;;;2.83;1.20;;;9.80;97.20;;;;;;1706375;28;20728;-66
2022/04/08 05:57:53;;;;;;;3.22;1.55;;;9.80;97.20;;;;;;1706428;29;20688;-66
2022/04/08 05:58:45;;;;;;;3.22;1.40;;;9.80;97.20;;;;;;1706160;29;20661;-66
2022/04/08 05:59:39;;;;;;;4.05;1.77;;;9.80;97.20;;;;;;1706440;28;20218;-66
2022/04/08 06:00:34;;;;;;;3.33;1.48;;;9.80;97.20;;;;;;1707174;29;20685;-67
2022/04/08 06:01:24;;;;;;;3.95;1.58;;;9.80;97.20;;;;;;1706181;29;20685;-66
2022/04/08 06:02:19;;;;;;;3.73;1.40;;;9.80;97.20;;;;;;1705917;29;20583;-66
2022/04/08 06:03:10;;;;;;;5.00;1.70;;;9.80;97.20;;;;;;1706072;29;20961;-67
2022/04/08 06:04:02;;;;;;;2.67;1.37;;;9.80;97.20;;;;;;1706397;28;20546;-66
2022/04/08 06:04:53;;;;;;;4.93;1.90;;;9.80;97.20;;;;;;1705846;29;20214;-66
2022/04/08 06:05:45;;;;;;;2.83;1.30;;;9.70;97.20;;;;;;1706919;28;20194;-66
2022/04/08 06:06:38;;;;;;;5.95;2.00;;;9.70;97.20;;;;;;1706450;28;20206;-66
2022/04/08 06:07:30;;;;;;;4.30;1.67;;;9.70;97.20;;;;;;1706421;29;20222;-66
2022/04/08 06:08:21;;;;;;;3.00;1.52;;;9.70;97.20;;;;;;1706055;29;20213;-67
2022/04/08 06:09:13;;;;;;;3.20;1.63;;;9.70;97.20;;;;;;1706239;28;20230;-66
2022/04/08 06:10:04;;;;;;;3.80;1.73;;;9.70;97.20;;;;;;1706165;28;20458;-69
2022/04/08 06:10:56;;;;;;;6.68;1.80;;;9.70;97.20;;;;;;1706433;28;20590;-69
2022/04/08 06:11:48;;;;;;;6.93;2.67;;;9.70;97.20;;;;;;1706503;29;20227;-67
2022/04/08 06:12:40;;;;;;;2.40;1.60;;;9.70;97.20;;;;;;1706527;28;20198;-66
2022/04/08 06:13:31;;;;;;;4.38;1.35;;;9.70;97.20;;;;;;1706032;29;20233;-66
2022/04/08 06:14:23;;;;;;;4.37;1.83;;;9.70;97.20;;;;;;1706499;28;20226;-66
2022/04/08 06:15:14;;;;;;;2.47;1.45;;;9.70;97.20;;;;;;1706447;28;20195;-66
2022/04/08 06:16:06;;;;;;;3.33;1.52;;;9.70;97.20;;;;;;1706195;28;20210;-66
2022/04/08 06:16:56;;;;;;;7.78;1.80;;;9.70;97.20;;;;;;1706503;28;20221;-66
2022/04/08 06:17:50;;;;;;;6.10;1.53;;;9.60;97.20;;;;;;1706263;29;20670;-66
2022/04/08 06:18:41;;;;;;;3.70;1.67;;;9.60;97.20;;;;;;1706604;29;20217;-66
2022/04/08 06:19:32;;;;;;;2.80;1.30;;;9.60;97.20;;;;;;1706206;28;20317;-66
2022/04/08 06:20:24;;;;;;;3.65;1.35;;;9.60;97.20;;;;;;1706100;29;20213;-66
2022/04/08 06:21:16;;;;;;;4.13;1.23;;;9.60;97.20;;;;;;1706197;28;20190;-65
2022/04/08 06:22:07;;;;;;;3.10;1.20;;;9.60;97.20;;;;;;1706356;29;20621;-66
2022/04/08 06:22:59;;;;;;;3.05;1.65;;;9.60;97.20;;;;;;1706042;29;20187;-66
2022/04/08 06:23:51;;;;;;;5.03;1.42;;;9.60;97.20;;;;;;1706422;28;20199;-65
2022/04/08 06:24:43;;;;;;;3.60;1.60;;;9.50;97.20;;;;;;1706407;28;20670;-66
2022/04/08 06:25:34;;;;;;;4.88;1.45;;;9.50;97.20;;;;;;1705995;29;20350;-67
2022/04/08 06:26:25;;;;;;;5.27;1.53;;;9.50;97.20;;;;;;1706326;28;20402;-66
2022/04/08 06:27:16;;;;;;;5.30;1.67;;;9.50;97.20;;;;;;1706199;29;20199;-66
2022/04/08 06:28:08;;;;;;;2.70;1.87;;;9.50;97.20;;;;;;1706062;28;20293;-66
2022/04/08 06:29:00;;;;;;;4.25;1.30;;;9.50;97.20;;;;;;1705901;29;20210;-66
2022/04/08 06:29:52;;;;;;;4.00;1.80;;;9.40;97.20;;;;;;1705885;29;20190;-66
2022/04/08 06:30:44;;;;;;;3.15;1.15;;;9.40;97.20;;;;;;1706237;29;20213;-66
2022/04/08 06:31:35;;;;;;;5.22;1.40;;;9.40;97.20;;;;;;1706252;29;20225;-66
2022/04/08 06:32:27;;;;;;;3.10;1.60;;;9.40;97.20;;;;;;1706459;28;20900;-66
2022/04/08 06:33:20;;;;;;;4.07;1.80;;;9.40;97.20;;;;;;1706020;29;20872;-66
2022/04/08 06:34:11;;;;;;;8.35;1.45;;;9.40;97.20;;;;;;1706157;29;20202;-66
2022/04/08 06:35:03;;;;;;;3.03;1.10;;;9.40;97.20;;;;;;1706141;29;20293;-66
2022/04/08 06:35:54;;;;;;;3.67;1.40;;;9.30;97.20;;;;;;1706215;28;20203;-66
2022/04/08 06:36:45;;;;;;;3.53;1.40;;;9.30;97.20;;;;;;1705947;28;20277;-66
2022/04/08 06:37:36;;;;;;;4.45;1.60;;;9.30;97.20;;;;;;1706335;29;20678;-66
2022/04/08 06:38:28;;;;;;;2.63;1.20;;;9.30;97.20;;;;;;1705984;29;20635;-66
2022/04/08 06:39:19;;;;;;;5.88;1.30;;;9.20;97.20;;;;;;1706070;29;20462;-66
2022/04/08 06:40:12;;;;;;;6.30;1.67;;;9.30;97.20;;;;;;1705706;28;20322;-66
2022/04/08 06:41:02;;;;;;;1.95;1.10;;;9.30;97.20;;;;;;1706053;29;20666;-66
2022/04/08 06:41:54;;;;;;;2.60;0.83;;;9.30;97.20;;;;;;1706168;28;20617;-66
2022/04/08 06:42:45;;;;;;;3.95;1.65;;;9.30;97.20;;;;;;1706108;29;20474;-65
2022/04/08 06:43:37;;;;;;;4.00;1.30;;;9.30;97.20;;;;;;1706014;28;20229;-66
2022/04/08 06:44:28;;;;;;;2.25;1.15;;;9.30;97.20;;;;;;1706309;28;20961;-66
2022/04/08 06:45:21;;;;;;;3.60;1.37;;;9.30;97.20;;;;;;1707106;28;20682;-66
2022/04/08 06:46:12;;;;;;;4.90;1.13;;;9.30;97.20;;;;;;1705972;28;20210;-66
2022/04/08 06:47:04;;;;;;;4.00;1.73;;;9.30;97.20;;;;;;1705650;29;20275;-67
2022/04/08 06:47:55;;;;;;;5.70;1.20;;;9.30;97.20;;;;;;1705502;28;20666;-67
2022/04/08 06:48:49;;;;;;;4.82;1.70;;;9.30;97.20;;;;;;1703624;28;20190;-66
2022/04/08 06:49:44;;;;;;;3.97;1.33;;;9.30;97.20;;;;;;1705511;29;20884;-66
2022/04/08 06:50:36;;;;;;;4.38;1.52;;;9.30;97.20;;;;;;1705837;29;20198;-66
2022/04/08 06:51:27;;;;;;;2.88;1.15;;;9.30;97.20;;;;;;1706487;28;20210;-66
2022/04/08 06:52:19;;;;;;;5.83;1.40;;;9.20;97.20;;;;;;1706097;28;20218;-66
2022/04/08 06:53:10;;;;;;;1.90;1.25;;;9.20;97.20;;;;;;1705746;29;20450;-66
2022/04/08 06:54:01;;;;;;;3.80;1.27;;;9.20;97.20;;;;;;1706430;28;20368;-66
2022/04/08 06:54:52;;;;;;;4.30;1.65;;;9.20;97.20;;;;;;1705840;29;20199;-65
2022/04/08 06:55:44;;;;;;;3.33;1.33;;;9.20;97.20;;;;;;1706051;28;20285;-66
2022/04/08 06:56:35;;;;;;;2.42;1.33;;;9.10;97.20;;;;;;1705941;29;20834;-66
2022/04/08 06:57:27;;;;;;;2.83;1.10;;;9.10;97.20;;;;;;1706031;28;20640;-66
2022/04/08 06:58:19;;;;;;;1.80;1.00;;;9.10;97.20;;;;;;1705840;28;20210;-66
2022/04/08 06:59:11;;;;;;;2.95;1.20;;;9.10;97.20;;;;;;1705954;29;20210;-66
2022/04/08 07:00:04;;;;;;;3.03;1.25;;;9.10;97.20;;;;;;1705906;29;20234;-66
2022/04/08 07:00:56;;;;;;;4.70;1.77;;;9.10;97.20;;;;;;1706500;28;20198;-66
2022/04/08 07:01:47;;;;;;;4.28;1.50;;;9.10;97.20;;;;;;1705721;29;20683;-67
2022/04/08 07:02:38;;;;;;;2.80;1.27;;;9.10;97.20;;;;;;1705229;29;20808;-67
2022/04/08 07:03:29;;;;;;;5.50;1.60;;;9.10;97.20;;;;;;1705446;28;20235;-67
2022/04/08 07:04:22;;;;;;;2.40;1.20;;;9.10;97.20;;;;;;1705036;28;20209;-67
2022/04/08 07:05:13;;;;;;;3.10;1.73;;;9.10;97.20;;;;;;1704834;28;20269;-67
2022/04/08 07:06:05;;;;;;;2.87;1.37;;;9.10;97.20;;;;;;1705059;28;20198;-67
2022/04/08 07:06:56;;;;;;;2.72;1.10;;;9.10;97.20;;;;;;1706029;29;20226;-67
2022/04/08 07:07:47;;;;;;;3.83;1.50;;;9.10;97.20;;;;;;1703767;28;20241;-67
2022/04/08 07:08:38;;;;;;;5.25;1.50;;;9.00;97.20;;;;;;1704650;28;20226;-67
2022/04/08 07:09:32;;;;;;;3.73;1.40;;;9.00;97.20;;;;;;1706043;28;20198;-67
2022/04/08 07:10:24;;;;;;;3.80;1.20;;;9.10;97.20;;;;;;1702942;28;21006;-67
2022/04/08 07:11:15;;;;;;;2.75;1.20;;;9.10;97.20;;;;;;1705381;29;20211;-67
2022/04/08 07:12:07;;;;;;;2.50;1.23;;;9.20;97.20;;;;;;1705916;28;20805;-67
2022/04/08 07:12:59;;;;;;;3.42;1.50;;;9.20;97.20;;;;;;1704723;29;20941;-67
2022/04/08 07:13:50;;;;;;;3.85;1.52;;;9.20;97.20;;;;;;1706352;28;20199;-67
2022/04/08 07:14:42;;;;;;;4.40;2.20;;;9.20;97.20;;;;;;1705984;28;20206;-67
2022/04/08 07:15:33;;;;;;;3.85;1.30;;;9.30;97.20;;;;;;1705393;28;20299;-67
2022/04/08 07:16:25;;;;;;;5.00;1.38;;;9.30;97.20;;;;;;1705536;29;20741;-67
2022/04/08 07:17:15;;;;;;;4.13;1.40;;;9.30;97.20;;;;;;1705492;29;20204;-67
2022/04/08 07:18:08;;;;;;;2.40;1.20;;;9.20;97.20;;;;;;1705332;29;20278;-67
2022/04/08 07:18:58;;;;;;;2.75;0.98;;;9.20;97.20;;;;;;1705631;29;20202;-67
2022/04/08 07:19:52;;;;;;;2.60;1.07;;;9.20;97.20;;;;;;1705938;29;20289;-66
2022/04/08 07:20:42;;;;;;;2.28;1.40;;;9.30;97.20;;;;;;1706255;28;20213;-67
2022/04/08 07:21:34;;;;;;;3.07;1.00;;;9.30;97.20;;;;;;1705352;29;20709;-67
2022/04/08 07:22:26;;;;;;;2.33;1.33;;;9.30;97.20;;;;;;1705713;29;20202;-67
2022/04/08 07:23:17;;;;;;;2.88;1.10;;;9.30;97.20;;;;;;1705919;28;20293;-66
2022/04/08 07:24:08;;;;;;;4.35;1.52;;;9.30;97.20;;;;;;1705900;29;20207;-66
2022/04/08 07:25:00;;;;;;;2.50;1.10;;;9.30;97.20;;;;;;1706016;28;20217;-66
2022/04/08 07:25:51;;;;;;;4.13;1.70;;;9.40;97.20;;;;;;1705731;29;20463;-66
2022/04/08 07:26:43;;;;;;;2.80;1.33;;;9.40;97.20;;;;;;1706253;28;20286;-66
2022/04/08 07:27:43;;;;;;;4.53;1.42;;;9.40;97.20;;;;;;1705799;29;20446;-66
2022/04/08 07:28:34;;;;;;;3.35;1.33;;;9.40;97.20;;;;;;1705445;28;20218;-66
2022/04/08 07:29:25;;;;;;;3.35;1.30;;;9.40;97.20;;;;;;1705683;29;20575;-66
2022/04/08 07:30:19;;;;;;;2.00;1.30;;;9.40;97.20;;;;;;1706688;28;20285;-66
2022/04/08 07:31:10;;;;;;;2.65;1.30;;;9.40;97.20;;;;;;1705881;28;20446;-66
2022/04/08 07:32:01;;;;;;;3.53;1.20;;;9.30;97.20;;;;;;1705615;28;20306;-68
2022/04/08 07:32:54;;;;;;;1.90;1.13;;;9.30;97.20;;;;;;1706100;28;20203;-66
2022/04/08 07:33:46;;;;;;;2.30;1.20;;;9.30;97.20;;;;;;1704692;29;20295;-66
2022/04/08 07:34:36;;;;;;;2.67;1.20;;;9.30;97.20;;;;;;1704466;28;20198;-66
2022/04/08 07:35:30;;;;;;;2.20;1.20;;;9.30;97.20;;;;;;1704345;28;20293;-65
2022/04/08 07:36:21;;;;;;;3.25;1.38;;;9.30;97.20;;;;;;1704683;29;20210;-65
2022/04/08 07:37:13;;;;;;;2.87;1.00;;;9.20;97.20;;;;;;1704691;28;20258;-65
2022/04/08 07:38:05;;;;;;;2.03;1.05;;;9.30;97.20;;;;;;1705547;29;20838;-66
2022/04/08 07:38:57;;;;;;;2.65;1.08;;;9.20;97.20;;;;;;1705043;29;20214;-66
2022/04/08 07:39:47;;;;;;;2.08;1.25;;;9.20;97.20;;;;;;1706275;28;20238;-67
2022/04/08 07:40:39;;;;;;;1.90;1.33;;;9.30;97.20;;;;;;1705328;29;20203;-66
2022/04/08 07:41:30;;;;;;;2.47;1.20;;;9.30;97.20;;;;;;1704710;29;20290;-67
2022/04/08 07:42:22;;;;;;;2.40;1.13;;;9.30;97.20;;;;;;1705927;28;20202;-66
2022/04/08 07:43:14;;;;;;;1.80;1.10;;;9.30;97.20;;;;;;1705291;29;20501;-67
2022/04/08 07:44:06;;;;;;;4.28;1.33;;;9.30;97.20;;;;;;1705726;28;20290;-69
2022/04/08 07:44:56;;;;;;;2.88;1.10;;;9.30;97.20;;;;;;1705933;28;20218;-67
2022/04/08 07:45:48;;;;;;;1.73;0.90;;;9.30;97.20;;;;;;1705769;28;20214;-67
2022/04/08 07:46:39;;;;;;;3.78;1.10;;;9.30;97.20;;;;;;1706081;29;20236;-67
2022/04/08 07:47:31;;;;;;;2.10;1.10;;;9.40;97.20;;;;;;1705816;29;20198;-70
2022/04/08 07:48:22;;;;;;;2.33;1.10;;;9.30;97.20;;;;;;1705254;29;20203;-67
2022/04/08 07:49:13;;;;;;;3.83;1.23;;;9.30;97.20;;;;;;1705879;28;20198;-67
2022/04/08 07:50:06;;;;;;;2.50;1.30;;;9.30;97.20;;;;;;1705756;28;20248;-67
2022/04/08 07:50:59;;;;;;;2.60;0.90;;;9.40;97.20;;;;;;1705658;28;20241;-68
2022/04/08 07:51:50;;;;;;;1.10;0.80;;;9.40;97.20;;;;;;1705235;28;20201;-68
2022/04/08 07:52:42;;;;;;;2.73;1.20;;;9.40;97.20;;;;;;1706039;28;20213;-67
2022/04/08 07:53:33;;;;;;;5.03;1.42;;;9.40;97.20;;;;;;1705888;28;20241;-68
2022/04/08 07:54:25;;;;;;;3.78;1.58;;;9.40;97.20;;;;;;1705464;29;20281;-67
2022/04/08 07:55:20;;;;;;;7.05;1.10;;;9.40;97.20;;;;;;1705583;28;20237;-67
2022/04/08 07:56:11;;;;;;;3.30;1.00;;;9.50;97.20;;;;;;1705624;29;20199;-67
2022/04/08 07:57:02;;;;;;;2.95;1.23;;;9.60;97.20;;;;;;1705699;28;20541;-67
2022/04/08 07:57:54;;;;;;;2.35;0.95;;;9.70;97.20;;;;;;1705790;28;20206;-68
2022/04/08 07:58:47;;;;;;;1.40;1.10;;;9.70;97.20;;;;;;1704953;29;20203;-67
2022/04/08 07:59:38;;;;;;;2.22;1.17;;;9.80;97.20;;;;;;1705686;29;20201;-69
2022/04/08 08:00:31;;;;;;;4.87;1.30;;;9.90;97.20;;;;;;1705843;28;20210;-69
2022/04/08 08:01:22;;;;;;;1.65;1.10;;;10.00;97.20;;;;;;1705793;29;20627;-69
2022/04/08 08:02:15;;;;;;;2.00;1.13;;;10.10;97.20;;;;;;1705797;28;20194;-69
2022/04/08 08:03:07;;;;;;;1.50;1.00;;;10.20;97.20;;;;;;1705374;29;20205;-69
2022/04/08 08:03:57;;;;;;;2.13;1.08;;;10.30;97.20;;;;;;1705685;29;20750;-68
2022/04/08 08:04:49;;;;;;;2.40;1.00;;;10.30;97.20;;;;;;1705338;29;20632;-68
2022/04/08 08:05:41;;;;;;;1.45;1.00;;;10.40;97.20;;;;;;1705929;28;20242;-68
2022/04/08 08:06:33;;;;;;;2.85;0.93;;;10.40;97.20;;;;;;1705906;28;20632;-67
2022/04/08 08:07:24;;;;;;;1.98;1.10;;;10.40;97.20;;;;;;1705362;29;20721;-67
2022/04/08 08:08:15;;;;;;;4.32;1.30;;;10.40;97.20;;;;;;1704816;29;20297;-66
2022/04/08 08:09:07;;;;;;;7.03;1.27;;;10.40;97.20;;;;;;1705687;29;20190;-69
2022/04/08 08:09:57;;;;;;;1.85;0.88;;;10.40;97.20;;;;;;1705743;28;20249;-68
2022/04/08 08:10:49;;;;;;;3.03;0.73;;;10.40;97.20;;;;;;1705571;28;20202;-68
2022/04/08 08:11:40;;;;;;;3.20;1.20;;;10.40;97.20;;;;;;1705498;29;20227;-69
2022/04/08 08:12:32;;;;;;;2.40;1.20;;;10.40;97.20;;;;;;1706268;28;20214;-68
2022/04/08 08:13:22;;;;;;;4.30;0.90;;;10.40;97.20;;;;;;1705234;29;20477;-68
2022/04/08 08:14:15;;;;;;;2.80;1.20;;;10.40;97.20;;;;;;1705678;28;20202;-69
2022/04/08 08:15:06;;;;;;;1.40;0.88;;;10.30;97.20;;;;;;1706624;29;20198;-68
2022/04/08 08:15:58;;;;;;;1.67;0.80;;;10.30;97.20;;;;;;1705359;29;20241;-68
2022/04/08 08:16:49;;;;;;;3.38;1.30;;;10.30;97.20;;;;;;1705394;29;20210;-68
2022/04/08 08:17:41;;;;;;;1.70;0.80;;;10.30;97.20;;;;;;1705391;29;20282;-68
2022/04/08 08:18:32;;;;;;;3.03;1.00;;;10.30;97.20;;;;;;1705534;28;20694;-69
2022/04/08 08:19:23;;;;;;;3.58;1.00;;;10.30;97.20;;;;;;1705902;29;20206;-68
2022/04/08 08:20:16;;;;;;;1.43;1.07;;;10.30;97.20;;;;;;1705513;28;20219;-68
2022/04/08 08:21:07;;;;;;;4.15;1.08;;;10.20;97.20;;;;;;1705463;29;20233;-68
2022/04/08 08:22:00;;;;;;;2.40;1.00;;;10.20;97.20;;;;;;1705645;28;20697;-68
2022/04/08 08:22:51;;;;;;;1.60;0.70;;;10.20;97.20;;;;;;1705808;28;20847;-68
2022/04/08 08:23:43;;;;;;;2.25;0.95;;;10.10;97.20;;;;;;1705781;28;21374;-66
2022/04/08 08:24:34;;;;;;;2.38;1.17;;;10.20;97.20;;;;;;1705598;29;20220;-66
2022/04/08 08:25:26;;;;;;;2.13;1.20;;;10.10;97.20;;;;;;1705726;29;20194;-66
2022/04/08 08:26:17;;;;;;;1.58;1.00;;;10.10;97.20;;;;;;1705726;28;20940;-67
2022/04/08 08:27:09;;;;;;;2.55;1.42;;;10.20;97.20;;;;;;1705315;28;20209;-66
2022/04/08 08:28:01;;;;;;;1.90;1.10;;;10.20;97.20;;;;;;1705614;29;20226;-67
2022/04/08 08:28:53;;;;;;;1.70;1.00;;;10.20;97.20;;;;;;1705225;29;20190;-67
2022/04/08 08:29:44;;;;;;;3.05;1.08;;;10.10;97.20;;;;;;1705502;29;20670;-66
2022/04/08 08:30:38;;;;;;;3.10;1.37;;;10.10;97.20;;;;;;1706147;29;20674;-67
2022/04/08 08:31:29;;;;;;;3.03;0.95;;;10.10;97.20;;;;;;1705246;29;20738;-66
2022/04/08 08:32:21;;;;;;;2.60;1.10;;;10.20;97.20;;;;;;1705996;28;20637;-67
2022/04/08 08:33:12;;;;;;;3.30;1.40;;;10.30;97.20;;;;;;1705461;29;20520;-67
2022/04/08 08:34:04;;;;;;;1.37;0.80;;;10.30;97.20;;;;;;1705346;29;20206;-66
2022/04/08 08:34:54;;;;;;;2.00;1.05;;;10.40;97.20;;;;;;1705423;29;20202;-66
2022/04/08 08:35:47;;;;;;;2.87;1.20;;;10.40;97.20;;;;;;1705381;28;20190;-66
2022/04/08 08:36:37;;;;;;;3.25;1.10;;;10.40;97.20;;;;;;1705389;29;20194;-66
2022/04/08 08:37:32;;;;;;;4.50;1.10;;;10.50;97.20;;;;;;1705326;29;20191;-66
2022/04/08 08:38:24;;;;;;;3.55;0.90;;;10.50;97.20;;;;;;1705132;28;20717;-66
2022/04/08 08:39:15;;;;;;;2.08;1.02;;;10.60;97.20;;;;;;1706110;28;20203;-67
2022/04/08 08:40:08;;;;;;;3.47;1.20;;;10.70;97.20;;;;;;1705581;28;20207;-66
2022/04/08 08:40:59;;;;;;;1.35;1.10;;;10.70;97.20;;;;;;1705171;29;20237;-67
2022/04/08 08:41:51;;;;;;;2.93;1.03;;;10.70;97.20;;;;;;1705594;28;20194;-67
2022/04/08 08:42:44;;;;;;;1.60;1.00;;;10.80;97.20;;;;;;1705127;29;20920;-66
2022/04/08 08:43:35;;;;;;;2.13;1.38;;;10.80;97.20;;;;;;1705298;29;20238;-66
2022/04/08 08:44:27;;;;;;;2.30;0.95;;;10.70;97.20;;;;;;1705653;28;20265;-66
2022/04/08 08:45:18;;;;;;;1.20;1.10;;;10.70;97.20;;;;;;1705982;28;20700;-66
2022/04/08 08:46:10;;;;;;;1.60;1.40;;;10.70;97.20;;;;;;1705301;28;20202;-66
2022/04/08 08:47:01;;;;;;;2.13;0.98;;;10.60;97.20;;;;;;1705312;29;20210;-67
2022/04/08 08:47:53;;;;;;;1.40;0.90;;;10.50;97.20;;;;;;1705140;29;20201;-67
2022/04/08 08:48:46;;;;;;;1.63;0.80;;;10.40;97.20;;;;;;1705014;28;20297;-67
2022/04/08 08:49:44;;;;;;;3.10;1.10;;;10.40;97.20;;;;;;1705014;29;20202;-67
2022/04/08 08:50:39;;;;;;;2.83;1.05;;;10.30;97.20;;;;;;1705332;29;20202;-67
2022/04/08 08:51:35;;;;;;;1.10;0.75;;;10.20;97.20;;;;;;1705219;29;20237;-67
2022/04/08 08:52:26;;;;;;;2.55;1.17;;;10.20;97.20;;;;;;1705862;28;20730;-67
2022/04/08 08:53:20;;;;;;;2.42;2.20;;;10.20;97.20;;;;;;1705557;28;20301;-67
2022/04/08 08:54:12;;;;;;;4.50;2.08;;;10.20;97.20;;;;;;1705321;29;20203;-66
2022/04/08 08:55:05;;;;;;;3.10;2.10;;;10.20;97.20;;;;;;1705198;29;20213;-66
2022/04/08 08:55:56;;;;;;;2.78;1.75;;;10.30;97.20;;;;;;1705239;29;20199;-66
2022/04/08 08:56:48;;;;;;;3.97;1.88;;;10.30;97.20;;;;;;1705389;28;20945;-66
2022/04/08 08:57:40;;;;;;;1.88;1.15;;;10.40;97.20;;;;;;1705552;28;20210;-66
2022/04/08 08:58:34;;;;;;;3.50;1.05;;;10.40;97.20;;;;;;1705319;29;20199;-67
2022/04/08 08:59:26;;;;;;;2.28;0.90;;;10.40;97.20;;;;;;1705325;29;20245;-67
2022/04/08 09:00:19;;;;;;;2.75;0.75;;;10.40;97.20;;;;;;1705567;29;20294;-66
2022/04/08 09:01:12;;;;;;;1.30;0.70;;;10.30;97.20;;;;;;1705415;29;20242;-66
2022/04/08 09:02:03;;;;;;;2.28;1.10;;;10.30;97.20;;;;;;1705415;28;20214;-66
2022/04/08 09:02:55;;;;;;;1.00;0.80;;;10.20;97.20;;;;;;1705094;29;20222;-66
2022/04/08 09:03:46;;;;;;;1.27;0.75;;;10.20;97.20;;;;;;1706789;28;20725;-66
2022/04/08 09:04:40;;;;;;;1.07;0.70;;;10.20;97.20;;;;;;1706658;29;20615;-66
2022/04/08 09:05:41;;;;;;;2.58;1.00;;;10.20;97.20;;;;;;1706363;29;20654;-66
2022/04/08 09:06:41;;;;;;;1.35;0.85;;;10.20;97.20;;;;;;1706470;29;20721;-67
2022/04/08 09:07:32;;;;;;;1.80;0.80;;;10.20;97.20;;;;;;1706763;28;20264;-66
2022/04/08 09:08:33;;;;;;;1.63;0.60;;;10.20;97.20;;;;;;1706631;28;20206;-67
2022/04/08 09:09:31;;;;;;;0.95;0.60;;;10.20;97.20;;;;;;1706608;29;20206;-66
2022/04/08 09:10:32;;;;;;;2.28;0.95;;;10.20;97.20;;;;;;1706449;29;20622;-67
2022/04/08 09:11:25;;;;;;;4.30;1.00;;;10.20;97.20;;;;;;1706553;29;20203;-66
2022/04/08 09:12:17;;;;;;;1.65;0.80;;;10.20;97.20;;;;;;1706922;28;20214;-67
2022/04/08 09:13:09;;;;;;;1.08;0.75;;;10.20;97.20;;;;;;1706302;28;21505;-67
2022/04/08 09:14:05;;;;;;;2.28;0.80;;;10.20;97.20;;;;;;1706710;29;20205;-66
2022/04/08 09:14:58;;;;;;;1.15;0.60;;;10.20;97.20;;;;;;1706608;28;20207;-67
2022/04/08 09:15:53;;;;;;;1.05;0.80;;;10.20;97.20;;;;;;1706690;29;20249;-67
2022/04/08 09:16:44;;;;;;;2.65;0.70;;;10.20;97.20;;;;;;1706518;29;20213;-66
2022/04/08 09:17:36;;;;;;;1.60;1.00;;;10.30;97.20;;;;;;1706774;28;20206;-67
2022/04/08 09:18:30;;;;;;;1.55;0.80;;;10.30;97.20;;;;;;1706645;29;20214;-66
2022/04/08 09:19:21;;;;;;;1.50;0.75;;;10.40;97.20;;;;;;1706574;29;20237;-67
2022/04/08 09:20:12;;;;;;;0.93;0.75;;;10.50;97.20;;;;;;1706581;29;20209;-67
2022/04/08 09:21:04;;;;;;;3.27;0.70;;;10.50;97.20;;;;;;1706730;28;20688;-67
2022/04/08 09:21:55;;;;;;;1.40;0.70;;;10.60;97.20;;;;;;1706888;28;20262;-67
2022/04/08 09:22:56;;;;;;;1.70;0.80;;;10.70;97.20;;;;;;1706899;28;20218;-67
2022/04/08 09:23:48;;;;;;;1.45;0.93;;;10.80;97.20;;;;;;1706537;29;20540;-67
2022/04/08 09:24:39;;;;;;;1.10;0.70;;;10.90;97.20;;;;;;1706845;29;20198;-67
2022/04/08 09:25:30;;;;;;;1.92;0.90;;;11.00;97.20;;;;;;1706725;29;20560;-67
2022/04/08 09:26:22;;;;;;;1.10;0.70;;;11.00;97.20;;;;;;1706646;28;20671;-67
2022/04/08 09:27:13;;;;;;;1.13;0.70;;;11.00;97.20;;;;;;1706649;28;20230;-67
2022/04/08 09:28:09;;;;;;;1.42;0.80;;;11.10;97.20;;;;;;1706373;28;20198;-67
2022/04/08 09:29:01;;;;;;;0.95;0.70;;;11.10;97.20;;;;;;1706759;29;20202;-67
2022/04/08 09:29:57;;;;;;;1.13;0.70;;;11.20;97.20;;;;;;1706857;28;20198;-67
2022/04/08 09:30:49;;;;;;;1.65;0.85;;;11.20;97.20;;;;;;1706447;29;20253;-67
2022/04/08 09:31:40;;;;;;;1.70;0.68;;;11.20;97.20;;;;;;1706866;29;20201;-67
2022/04/08 09:32:31;;;;;;;1.98;1.10;;;11.20;97.20;;;;;;1706355;29;20205;-67